sensor_id;sensor_type;location;lat;lon;timestamp;temperature;humidity
39503;DHT22;26970;49.900;10.774;2022-09-25T00:01:23;12.60;99.90
39503;DHT22;26970;49.900;10.774;2022-09-25T00:03:49;12.70;99.90
39503;DHT22;26970;49.900;10.774;2022-09-25T00:06:17;12.70;99.90
39503;DHT22;26970;49.900;10.774;2022-09-25T00:08:43;12.70;99.90
39503;DHT22;26970;49.900;10.774;2022-09-25T00:11:15;12.60;99.90
39503;DHT22;26970;49.900;10.774;2022-09-25T00:13:42;12.40;99.90
39503;DHT22;26970;49.900;10.774;2022-09-25T00:16:10;12.70;99.90
39503;DHT22;26970;49.900;10.774;2022-09-25T00:18:36;13.50;99.90
39503;DHT22;26970;49.900;10.774;2022-09-25T00:21:20;12.10;99.90
39503;DHT22;26970;49.900;10.774;2022-09-25T00:23:46;12.10;99.90
39503;DHT22;26970;49.900;10.774;2022-09-25T00:26:15;12.00;99.90
39503;DHT22;26970;49.900;10.774;2022-09-25T00:28:42;11.90;99.90
39503;DHT22;26970;49.900;10.774;2022-09-25T00:31:08;11.90;99.90
39503;DHT22;26970;49.900;10.774;2022-09-25T00:33:35;11.80;99.90
39503;DHT22;26970;49.900;10.774;2022-09-25T00:36:02;11.80;99.90
39503;DHT22;26970;49.900;10.774;2022-09-25T00:38:30;11.80;99.90
39503;DHT22;26970;49.900;10.774;2022-09-25T00:40:56;11.80;99.90
39503;DHT22;26970;49.900;10.774;2022-09-25T00:43:44;12.20;99.90
39503;DHT22;26970;49.900;10.774;2022-09-25T00:46:17;11.60;99.90
39503;DHT22;26970;49.900;10.774;2022-09-25T00:48:51;11.60;99.90
39503;DHT22;26970;49.900;10.774;2022-09-25T00:51:20;11.60;99.90
39503;DHT22;26970;49.900;10.774;2022-09-25T00:53:47;11.60;99.90
39503;DHT22;26970;49.900;10.774;2022-09-25T00:56:15;11.50;99.90
39503;DHT22;26970;49.900;10.774;2022-09-25T00:58:41;11.50;99.90
39503;DHT22;26970;49.900;10.774;2022-09-25T01:01:07;11.50;99.90
39503;DHT22;26970;49.900;10.774;2022-09-25T01:03:34;11.50;99.90
39503;DHT22;26970;49.900;10.774;2022-09-25T01:06:01;11.50;99.90
39503;DHT22;26970;49.900;10.774;2022-09-25T01:08:29;11.60;99.90
39503;DHT22;26970;49.900;10.774;2022-09-25T01:10:56;11.60;99.90
39503;DHT22;26970;49.900;10.774;2022-09-25T01:13:22;11.60;99.90
39503;DHT22;26970;49.900;10.774;2022-09-25T01:16:30;11.60;99.90
39503;DHT22;26970;49.900;10.774;2022-09-25T01:22:34;11.70;99.90
39503;DHT22;26970;49.900;10.774;2022-09-25T01:28:39;11.70;99.90
39503;DHT22;26970;49.900;10.774;2022-09-25T01:31:14;11.70;99.90
39503;DHT22;26970;49.900;10.774;2022-09-25T01:33:50;11.70;99.90
39503;DHT22;26970;49.900;10.774;2022-09-25T01:36:27;11.80;99.90
39503;DHT22;26970;49.900;10.774;2022-09-25T01:39:05;11.80;99.90
39503;DHT22;26970;49.900;10.774;2022-09-25T01:41:39;11.80;99.90
39503;DHT22;26970;49.900;10.774;2022-09-25T01:44:16;11.80;99.90
39503;DHT22;26970;49.900;10.774;2022-09-25T01:46:50;11.70;99.90
39503;DHT22;26970;49.900;10.774;2022-09-25T01:49:28;11.60;99.90
39503;DHT22;26970;49.900;10.774;2022-09-25T01:51:55;11.60;99.90
39503;DHT22;26970;49.900;10.774;2022-09-25T01:54:29;11.60;99.90
39503;DHT22;26970;49.900;10.774;2022-09-25T01:57:17;11.70;99.90
39503;DHT22;26970;49.900;10.774;2022-09-25T01:59:44;11.70;99.90
39503;DHT22;26970;49.900;10.774;2022-09-25T02:02:14;11.70;99.90
39503;DHT22;26970;49.900;10.774;2022-09-25T02:04:53;11.80;99.90
39503;DHT22;26970;49.900;10.774;2022-09-25T02:07:27;11.80;99.90
39503;DHT22;26970;49.900;10.774;2022-09-25T02:09:56;11.80;99.90
39503;DHT22;26970;49.900;10.774;2022-09-25T02:12:39;11.70;99.90
39503;DHT22;26970;49.900;10.774;2022-09-25T02:15:22;11.70;99.90
39503;DHT22;26970;49.900;10.774;2022-09-25T02:17:57;11.60;99.90
39503;DHT22;26970;49.900;10.774;2022-09-25T02:20:46;11.60;99.90
39503;DHT22;26970;49.900;10.774;2022-09-25T02:23:24;11.60;99.90
39503;DHT22;26970;49.900;10.774;2022-09-25T02:26:10;11.60;99.90
39503;DHT22;26970;49.900;10.774;2022-09-25T02:28:39;11.50;99.90
39503;DHT22;26970;49.900;10.774;2022-09-25T02:31:08;11.60;99.90
39503;DHT22;26970;49.900;10.774;2022-09-25T02:33:35;11.60;99.90
39503;DHT22;26970;49.900;10.774;2022-09-25T02:36:03;11.60;99.90
39503;DHT22;26970;49.900;10.774;2022-09-25T02:38:29;11.60;99.90
39503;DHT22;26970;49.900;10.774;2022-09-25T02:43:45;11.60;99.90
39503;DHT22;26970;49.900;10.774;2022-09-25T02:46:38;11.60;99.90
39503;DHT22;26970;49.900;10.774;2022-09-25T02:49:31;11.60;99.90
39503;DHT22;26970;49.900;10.774;2022-09-25T02:52:04;11.60;99.90
39503;DHT22;26970;49.900;10.774;2022-09-25T02:54:37;11.60;99.90
39503;DHT22;26970;49.900;10.774;2022-09-25T02:58:02;11.60;99.90
39503;DHT22;26970;49.900;10.774;2022-09-25T03:00:08;11.60;99.90
39503;DHT22;26970;49.900;10.774;2022-09-25T03:02:36;11.60;99.90
39503;DHT22;26970;49.900;10.774;2022-09-25T03:05:03;11.50;99.90
39503;DHT22;26970;49.900;10.774;2022-09-25T03:07:30;11.50;99.90
39503;DHT22;26970;49.900;10.774;2022-09-25T03:10:17;11.60;99.90
39503;DHT22;26970;49.900;10.774;2022-09-25T03:12:43;11.50;99.90
39503;DHT22;26970;49.900;10.774;2022-09-25T03:15:10;11.60;99.90
39503;DHT22;26970;49.900;10.774;2022-09-25T03:17:36;11.60;99.90
39503;DHT22;26970;49.900;10.774;2022-09-25T03:20:05;11.60;99.90
39503;DHT22;26970;49.900;10.774;2022-09-25T03:22:31;11.60;99.90
39503;DHT22;26970;49.900;10.774;2022-09-25T03:24:56;11.60;99.90
39503;DHT22;26970;49.900;10.774;2022-09-25T03:27:22;11.70;99.90
39503;DHT22;26970;49.900;10.774;2022-09-25T03:29:50;11.70;99.90
39503;DHT22;26970;49.900;10.774;2022-09-25T03:32:15;11.70;99.90
39503;DHT22;26970;49.900;10.774;2022-09-25T03:34:41;11.80;99.90
39503;DHT22;26970;49.900;10.774;2022-09-25T03:37:06;11.90;99.90
39503;DHT22;26970;49.900;10.774;2022-09-25T03:39:32;11.90;99.90
39503;DHT22;26970;49.900;10.774;2022-09-25T03:41:57;12.00;99.90
39503;DHT22;26970;49.900;10.774;2022-09-25T03:44:23;12.00;99.90
39503;DHT22;26970;49.900;10.774;2022-09-25T03:46:48;12.10;99.90
39503;DHT22;26970;49.900;10.774;2022-09-25T03:49:14;12.10;99.90
39503;DHT22;26970;49.900;10.774;2022-09-25T03:51:39;12.10;99.90
39503;DHT22;26970;49.900;10.774;2022-09-25T03:54:06;12.10;99.90
39503;DHT22;26970;49.900;10.774;2022-09-25T03:56:32;12.70;99.90
39503;DHT22;26970;49.900;10.774;2022-09-25T03:58:58;12.00;99.90
39503;DHT22;26970;49.900;10.774;2022-09-25T04:01:25;12.00;99.90
39503;DHT22;26970;49.900;10.774;2022-09-25T04:03:51;11.90;99.90
39503;DHT22;26970;49.900;10.774;2022-09-25T04:06:19;12.00;99.90
39503;DHT22;26970;49.900;10.774;2022-09-25T04:08:45;12.00;99.90
39503;DHT22;26970;49.900;10.774;2022-09-25T04:11:12;12.10;99.90
39503;DHT22;26970;49.900;10.774;2022-09-25T04:13:39;12.10;99.90
39503;DHT22;26970;49.900;10.774;2022-09-25T04:16:09;12.10;99.90
39503;DHT22;26970;49.900;10.774;2022-09-25T04:18:35;12.10;99.90
39503;DHT22;26970;49.900;10.774;2022-09-25T04:21:04;12.10;99.90
39503;DHT22;26970;49.900;10.774;2022-09-25T04:23:31;12.10;99.90
39503;DHT22;26970;49.900;10.774;2022-09-25T04:25:57;12.10;99.90
39503;DHT22;26970;49.900;10.774;2022-09-25T04:28:23;12.10;99.90
39503;DHT22;26970;49.900;10.774;2022-09-25T04:30:48;12.20;99.90
39503;DHT22;26970;49.900;10.774;2022-09-25T04:33:14;12.20;99.90
39503;DHT22;26970;49.900;10.774;2022-09-25T04:35:59;12.20;99.90
39503;DHT22;26970;49.900;10.774;2022-09-25T04:38:25;12.20;99.90
39503;DHT22;26970;49.900;10.774;2022-09-25T04:40:51;12.10;99.90
39503;DHT22;26970;49.900;10.774;2022-09-25T04:43:16;12.20;99.90
39503;DHT22;26970;49.900;10.774;2022-09-25T04:45:42;12.10;99.90
39503;DHT22;26970;49.900;10.774;2022-09-25T04:48:08;12.10;99.90
39503;DHT22;26970;49.900;10.774;2022-09-25T04:50:34;12.10;99.90
39503;DHT22;26970;49.900;10.774;2022-09-25T04:53:00;13.30;99.90
39503;DHT22;26970;49.900;10.774;2022-09-25T04:55:26;12.20;99.90
39503;DHT22;26970;49.900;10.774;2022-09-25T04:57:53;12.30;99.90
39503;DHT22;26970;49.900;10.774;2022-09-25T05:00:20;12.40;99.90
39503;DHT22;26970;49.900;10.774;2022-09-25T05:02:46;12.40;99.90
39503;DHT22;26970;49.900;10.774;2022-09-25T05:05:12;12.40;99.90
39503;DHT22;26970;49.900;10.774;2022-09-25T05:07:38;12.40;99.90
39503;DHT22;26970;49.900;10.774;2022-09-25T05:10:05;12.40;99.90
39503;DHT22;26970;49.900;10.774;2022-09-25T05:12:32;12.40;99.90
39503;DHT22;26970;49.900;10.774;2022-09-25T05:14:57;12.40;99.90
39503;DHT22;26970;49.900;10.774;2022-09-25T05:17:23;12.40;99.90
39503;DHT22;26970;49.900;10.774;2022-09-25T05:19:48;12.40;99.90
39503;DHT22;26970;49.900;10.774;2022-09-25T05:22:14;12.40;99.90
39503;DHT22;26970;49.900;10.774;2022-09-25T05:24:40;12.30;99.90
39503;DHT22;26970;49.900;10.774;2022-09-25T05:27:05;12.30;99.90
39503;DHT22;26970;49.900;10.774;2022-09-25T05:29:31;12.30;99.90
39503;DHT22;26970;49.900;10.774;2022-09-25T05:31:56;12.40;99.90
39503;DHT22;26970;49.900;10.774;2022-09-25T05:34:22;12.40;99.90
39503;DHT22;26970;49.900;10.774;2022-09-25T05:36:47;12.40;99.90
39503;DHT22;26970;49.900;10.774;2022-09-25T05:39:13;12.40;99.90
39503;DHT22;26970;49.900;10.774;2022-09-25T05:41:38;12.40;99.90
39503;DHT22;26970;49.900;10.774;2022-09-25T05:44:04;12.40;99.90
39503;DHT22;26970;49.900;10.774;2022-09-25T05:46:36;12.40;99.90
39503;DHT22;26970;49.900;10.774;2022-09-25T05:49:03;12.30;99.90
39503;DHT22;26970;49.900;10.774;2022-09-25T05:51:28;12.20;99.90
39503;DHT22;26970;49.900;10.774;2022-09-25T05:53:54;12.30;99.90
39503;DHT22;26970;49.900;10.774;2022-09-25T05:56:20;12.30;99.90
39503;DHT22;26970;49.900;10.774;2022-09-25T05:58:48;12.20;99.90
39503;DHT22;26970;49.900;10.774;2022-09-25T06:01:14;12.20;99.90
39503;DHT22;26970;49.900;10.774;2022-09-25T06:03:39;12.10;99.90
39503;DHT22;26970;49.900;10.774;2022-09-25T06:06:05;12.10;99.90
39503;DHT22;26970;49.900;10.774;2022-09-25T06:08:31;12.10;99.90
39503;DHT22;26970;49.900;10.774;2022-09-25T06:10:57;12.10;99.90
39503;DHT22;26970;49.900;10.774;2022-09-25T06:13:24;12.10;99.90
39503;DHT22;26970;49.900;10.774;2022-09-25T06:15:50;12.10;99.90
39503;DHT22;26970;49.900;10.774;2022-09-25T06:18:19;12.00;99.90
39503;DHT22;26970;49.900;10.774;2022-09-25T06:20:45;12.00;99.90
39503;DHT22;26970;49.900;10.774;2022-09-25T06:23:11;12.00;99.90
39503;DHT22;26970;49.900;10.774;2022-09-25T06:25:37;12.00;99.90
39503;DHT22;26970;49.900;10.774;2022-09-25T06:28:03;11.90;99.90
39503;DHT22;26970;49.900;10.774;2022-09-25T06:30:30;11.90;99.90
39503;DHT22;26970;49.900;10.774;2022-09-25T06:33:11;11.90;99.90
39503;DHT22;26970;49.900;10.774;2022-09-25T06:35:45;11.90;99.90
39503;DHT22;26970;49.900;10.774;2022-09-25T06:38:11;12.00;99.90
39503;DHT22;26970;49.900;10.774;2022-09-25T06:40:37;11.90;99.90
39503;DHT22;26970;49.900;10.774;2022-09-25T06:43:06;11.90;99.90
39503;DHT22;26970;49.900;10.774;2022-09-25T06:45:33;12.00;99.90
39503;DHT22;26970;49.900;10.774;2022-09-25T06:48:01;12.00;99.90
39503;DHT22;26970;49.900;10.774;2022-09-25T06:50:31;12.00;99.90
39503;DHT22;26970;49.900;10.774;2022-09-25T06:53:00;12.00;99.90
39503;DHT22;26970;49.900;10.774;2022-09-25T06:55:27;12.00;99.90
39503;DHT22;26970;49.900;10.774;2022-09-25T06:57:53;12.00;99.90
39503;DHT22;26970;49.900;10.774;2022-09-25T07:00:19;12.10;99.90
39503;DHT22;26970;49.900;10.774;2022-09-25T07:02:44;12.10;99.90
39503;DHT22;26970;49.900;10.774;2022-09-25T07:05:28;12.10;99.90
39503;DHT22;26970;49.900;10.774;2022-09-25T07:07:54;12.20;99.90
39503;DHT22;26970;49.900;10.774;2022-09-25T07:10:20;12.20;99.90
39503;DHT22;26970;49.900;10.774;2022-09-25T07:12:46;12.20;99.90
39503;DHT22;26970;49.900;10.774;2022-09-25T07:15:12;12.20;99.90
39503;DHT22;26970;49.900;10.774;2022-09-25T07:17:42;12.20;99.90
39503;DHT22;26970;49.900;10.774;2022-09-25T07:20:08;12.30;99.90
39503;DHT22;26970;49.900;10.774;2022-09-25T07:22:37;12.30;99.90
39503;DHT22;26970;49.900;10.774;2022-09-25T07:25:03;12.30;99.90
39503;DHT22;26970;49.900;10.774;2022-09-25T07:27:29;12.30;99.90
39503;DHT22;26970;49.900;10.774;2022-09-25T07:29:54;12.30;99.90
39503;DHT22;26970;49.900;10.774;2022-09-25T07:32:20;12.30;99.90
39503;DHT22;26970;49.900;10.774;2022-09-25T07:34:46;12.20;99.90
39503;DHT22;26970;49.900;10.774;2022-09-25T07:37:14;12.30;99.90
39503;DHT22;26970;49.900;10.774;2022-09-25T07:39:40;12.30;99.90
39503;DHT22;26970;49.900;10.774;2022-09-25T07:42:05;12.30;99.90
39503;DHT22;26970;49.900;10.774;2022-09-25T07:44:31;12.30;99.90
39503;DHT22;26970;49.900;10.774;2022-09-25T07:46:56;12.40;99.90
39503;DHT22;26970;49.900;10.774;2022-09-25T07:49:22;12.40;99.90
39503;DHT22;26970;49.900;10.774;2022-09-25T07:51:48;12.40;99.90
39503;DHT22;26970;49.900;10.774;2022-09-25T07:54:13;12.40;99.90
39503;DHT22;26970;49.900;10.774;2022-09-25T07:56:39;12.30;99.90
39503;DHT22;26970;49.900;10.774;2022-09-25T07:59:04;12.30;99.90
39503;DHT22;26970;49.900;10.774;2022-09-25T08:01:30;12.30;99.90
39503;DHT22;26970;49.900;10.774;2022-09-25T08:03:55;12.30;99.90
39503;DHT22;26970;49.900;10.774;2022-09-25T08:06:21;12.40;99.90
39503;DHT22;26970;49.900;10.774;2022-09-25T08:08:47;12.40;99.90
39503;DHT22;26970;49.900;10.774;2022-09-25T08:11:14;12.40;99.90
39503;DHT22;26970;49.900;10.774;2022-09-25T08:13:42;12.40;99.90
39503;DHT22;26970;49.900;10.774;2022-09-25T08:16:13;12.40;99.90
39503;DHT22;26970;49.900;10.774;2022-09-25T08:18:39;12.50;99.90
39503;DHT22;26970;49.900;10.774;2022-09-25T08:21:07;12.40;99.90
39503;DHT22;26970;49.900;10.774;2022-09-25T08:23:33;12.50;99.90
39503;DHT22;26970;49.900;10.774;2022-09-25T08:25:59;12.50;99.90
39503;DHT22;26970;49.900;10.774;2022-09-25T08:28:24;12.60;99.90
39503;DHT22;26970;49.900;10.774;2022-09-25T08:30:50;12.50;99.90
39503;DHT22;26970;49.900;10.774;2022-09-25T08:33:16;12.50;99.90
39503;DHT22;26970;49.900;10.774;2022-09-25T08:35:42;12.50;99.90
39503;DHT22;26970;49.900;10.774;2022-09-25T08:38:09;12.60;99.90
39503;DHT22;26970;49.900;10.774;2022-09-25T08:40:49;12.50;99.90
39503;DHT22;26970;49.900;10.774;2022-09-25T08:43:20;12.60;99.90
39503;DHT22;26970;49.900;10.774;2022-09-25T08:45:48;12.60;99.90
39503;DHT22;26970;49.900;10.774;2022-09-25T08:51:43;12.50;99.90
39503;DHT22;26970;49.900;10.774;2022-09-25T08:54:19;12.50;99.90
39503;DHT22;26970;49.900;10.774;2022-09-25T08:56:48;12.40;99.90
39503;DHT22;26970;49.900;10.774;2022-09-25T09:01:49;12.40;99.90
39503;DHT22;26970;49.900;10.774;2022-09-25T09:04:31;12.40;99.90
39503;DHT22;26970;49.900;10.774;2022-09-25T09:07:10;12.40;99.90
39503;DHT22;26970;49.900;10.774;2022-09-25T09:12:50;12.40;99.90
39503;DHT22;26970;49.900;10.774;2022-09-25T09:15:26;12.40;99.90
39503;DHT22;26970;49.900;10.774;2022-09-25T09:17:53;12.50;99.90
39503;DHT22;26970;49.900;10.774;2022-09-25T09:20:25;12.40;99.90
39503;DHT22;26970;49.900;10.774;2022-09-25T09:22:56;12.40;99.90
39503;DHT22;26970;49.900;10.774;2022-09-25T09:25:30;12.30;99.90
39503;DHT22;26970;49.900;10.774;2022-09-25T09:28:26;12.30;99.90
39503;DHT22;26970;49.900;10.774;2022-09-25T09:31:08;12.30;99.90
39503;DHT22;26970;49.900;10.774;2022-09-25T09:33:58;12.20;99.90
39503;DHT22;26970;49.900;10.774;2022-09-25T09:36:34;12.10;99.90
39503;DHT22;26970;49.900;10.774;2022-09-25T09:39:18;12.00;99.90
39503;DHT22;26970;49.900;10.774;2022-09-25T09:47:47;11.70;99.90
39503;DHT22;26970;49.900;10.774;2022-09-25T09:53:22;11.60;99.90
39503;DHT22;26970;49.900;10.774;2022-09-25T09:55:53;11.60;99.90
39503;DHT22;26970;49.900;10.774;2022-09-25T10:01:08;11.60;99.90
39503;DHT22;26970;49.900;10.774;2022-09-25T10:03:37;11.60;99.90
39503;DHT22;26970;49.900;10.774;2022-09-25T10:06:08;11.60;99.90
39503;DHT22;26970;49.900;10.774;2022-09-25T10:08:35;11.50;99.90
39503;DHT22;26970;49.900;10.774;2022-09-25T10:11:04;11.60;99.90
39503;DHT22;26970;49.900;10.774;2022-09-25T10:13:35;11.60;99.90
39503;DHT22;26970;49.900;10.774;2022-09-25T10:19:05;11.60;99.90
39503;DHT22;26970;49.900;10.774;2022-09-25T10:21:58;11.60;99.90
39503;DHT22;26970;49.900;10.774;2022-09-25T10:24:46;11.70;99.90
39503;DHT22;26970;49.900;10.774;2022-09-25T10:33:01;11.60;99.90
39503;DHT22;26970;49.900;10.774;2022-09-25T10:37:55;11.60;99.90
39503;DHT22;26970;49.900;10.774;2022-09-25T10:40:28;11.60;99.90
39503;DHT22;26970;49.900;10.774;2022-09-25T10:43:18;11.60;99.90
39503;DHT22;26970;49.900;10.774;2022-09-25T10:45:49;11.60;99.90
39503;DHT22;26970;49.900;10.774;2022-09-25T10:48:33;11.60;99.90
39503;DHT22;26970;49.900;10.774;2022-09-25T10:51:18;11.50;99.90
39503;DHT22;26970;49.900;10.774;2022-09-25T10:53:46;11.40;99.90
39503;DHT22;26970;49.900;10.774;2022-09-25T10:56:31;11.90;99.90
39503;DHT22;26970;49.900;10.774;2022-09-25T10:59:01;11.30;99.90
39503;DHT22;26970;49.900;10.774;2022-09-25T11:01:38;11.40;99.90
39503;DHT22;26970;49.900;10.774;2022-09-25T11:04:27;11.30;99.90
39503;DHT22;26970;49.900;10.774;2022-09-25T11:07:06;11.40;99.90
39503;DHT22;26970;49.900;10.774;2022-09-25T11:09:32;11.40;99.90
39503;DHT22;26970;49.900;10.774;2022-09-25T11:12:20;11.50;99.90
39503;DHT22;26970;49.900;10.774;2022-09-25T11:15:03;11.50;99.90
39503;DHT22;26970;49.900;10.774;2022-09-25T11:17:41;11.50;99.90
39503;DHT22;26970;49.900;10.774;2022-09-25T11:20:20;11.50;99.90
39503;DHT22;26970;49.900;10.774;2022-09-25T11:23:20;11.60;99.90
39503;DHT22;26970;49.900;10.774;2022-09-25T11:28:45;11.60;99.90
39503;DHT22;26970;49.900;10.774;2022-09-25T11:31:37;11.80;99.90
39503;DHT22;26970;49.900;10.774;2022-09-25T11:34:27;11.80;99.90
39503;DHT22;26970;49.900;10.774;2022-09-25T11:37:04;11.90;99.90
39503;DHT22;26970;49.900;10.774;2022-09-25T11:39:43;12.00;99.90
39503;DHT22;26970;49.900;10.774;2022-09-25T11:42:40;12.10;99.90
39503;DHT22;26970;49.900;10.774;2022-09-25T11:45:22;12.10;99.90
39503;DHT22;26970;49.900;10.774;2022-09-25T11:47:56;12.20;99.90
39503;DHT22;26970;49.900;10.774;2022-09-25T11:50:34;12.20;99.90
39503;DHT22;26970;49.900;10.774;2022-09-25T11:53:31;12.10;99.90
39503;DHT22;26970;49.900;10.774;2022-09-25T11:59:03;12.10;99.90
39503;DHT22;26970;49.900;10.774;2022-09-25T12:04:33;12.20;99.90
39503;DHT22;26970;49.900;10.774;2022-09-25T12:12:57;12.80;99.90
39503;DHT22;26970;49.900;10.774;2022-09-25T12:20:56;12.80;99.90
39503;DHT22;26970;49.900;10.774;2022-09-25T12:23:32;12.80;99.90
39503;DHT22;26970;49.900;10.774;2022-09-25T12:26:23;12.80;99.90
39503;DHT22;26970;49.900;10.774;2022-09-25T12:28:55;13.00;99.90
39503;DHT22;26970;49.900;10.774;2022-09-25T12:31:59;13.00;99.90
39503;DHT22;26970;49.900;10.774;2022-09-25T12:34:57;13.20;99.90
39503;DHT22;26970;49.900;10.774;2022-09-25T12:37:47;13.40;99.90
39503;DHT22;26970;49.900;10.774;2022-09-25T12:40:25;13.50;99.90
39503;DHT22;26970;49.900;10.774;2022-09-25T12:42:58;13.40;99.90
39503;DHT22;26970;49.900;10.774;2022-09-25T12:45:38;13.40;99.90
39503;DHT22;26970;49.900;10.774;2022-09-25T12:48:14;13.10;99.90
39503;DHT22;26970;49.900;10.774;2022-09-25T12:50:51;13.00;99.90
39503;DHT22;26970;49.900;10.774;2022-09-25T12:56:03;13.20;99.90
39503;DHT22;26970;49.900;10.774;2022-09-25T13:01:39;13.20;99.90
39503;DHT22;26970;49.900;10.774;2022-09-25T13:09:22;13.10;99.90
39503;DHT22;26970;49.900;10.774;2022-09-25T13:11:57;13.10;99.90
39503;DHT22;26970;49.900;10.774;2022-09-25T13:14:43;13.10;99.90
39503;DHT22;26970;49.900;10.774;2022-09-25T13:17:11;13.20;99.90
39503;DHT22;26970;49.900;10.774;2022-09-25T13:19:38;14.10;99.90
39503;DHT22;26970;49.900;10.774;2022-09-25T13:22:19;13.20;99.90
39503;DHT22;26970;49.900;10.774;2022-09-25T13:27:40;13.10;99.90
39503;DHT22;26970;49.900;10.774;2022-09-25T13:30:20;13.20;99.90
39503;DHT22;26970;49.900;10.774;2022-09-25T13:32:47;13.20;99.90
39503;DHT22;26970;49.900;10.774;2022-09-25T13:35:18;13.30;99.90
39503;DHT22;26970;49.900;10.774;2022-09-25T13:37:45;13.40;99.90
39503;DHT22;26970;49.900;10.774;2022-09-25T13:40:16;13.40;99.90
39503;DHT22;26970;49.900;10.774;2022-09-25T13:43:19;13.40;99.90
39503;DHT22;26970;49.900;10.774;2022-09-25T13:45:46;13.30;99.90
39503;DHT22;26970;49.900;10.774;2022-09-25T13:48:32;14.20;99.90
39503;DHT22;26970;49.900;10.774;2022-09-25T13:54:03;13.40;99.90
39503;DHT22;26970;49.900;10.774;2022-09-25T14:01:55;13.40;99.90
39503;DHT22;26970;49.900;10.774;2022-09-25T14:07:02;13.50;99.90
39503;DHT22;26970;49.900;10.774;2022-09-25T14:09:28;13.50;99.90
39503;DHT22;26970;49.900;10.774;2022-09-25T14:15:22;14.00;99.90
39503;DHT22;26970;49.900;10.774;2022-09-25T14:17:41;13.40;99.90
39503;DHT22;26970;49.900;10.774;2022-09-25T14:20:30;14.30;99.90
39503;DHT22;26970;49.900;10.774;2022-09-25T14:22:59;13.40;99.90
39503;DHT22;26970;49.900;10.774;2022-09-25T14:25:30;14.60;99.90
39503;DHT22;26970;49.900;10.774;2022-09-25T14:27:58;13.40;99.90
39503;DHT22;26970;49.900;10.774;2022-09-25T14:30:25;13.50;99.90
39503;DHT22;26970;49.900;10.774;2022-09-25T14:33:19;14.70;99.90
39503;DHT22;26970;49.900;10.774;2022-09-25T14:38:42;13.70;99.90
39503;DHT22;26970;49.900;10.774;2022-09-25T14:46:55;13.80;99.90
39503;DHT22;26970;49.900;10.774;2022-09-25T14:49:28;14.10;99.90
39503;DHT22;26970;49.900;10.774;2022-09-25T14:51:58;13.70;99.90
39503;DHT22;26970;49.900;10.774;2022-09-25T14:54:28;13.70;99.90
39503;DHT22;26970;49.900;10.774;2022-09-25T14:56:56;13.80;99.90
39503;DHT22;26970;49.900;10.774;2022-09-25T14:59:29;14.00;99.90
39503;DHT22;26970;49.900;10.774;2022-09-25T15:01:57;13.70;99.90
39503;DHT22;26970;49.900;10.774;2022-09-25T15:04:32;14.80;99.90
39503;DHT22;26970;49.900;10.774;2022-09-25T15:09:41;13.70;99.90
39503;DHT22;26970;49.900;10.774;2022-09-25T15:12:18;13.90;99.90
39503;DHT22;26970;49.900;10.774;2022-09-25T15:15:03;14.60;99.90
39503;DHT22;26970;49.900;10.774;2022-09-25T15:17:31;15.10;99.90
39503;DHT22;26970;49.900;10.774;2022-09-25T15:20:00;13.40;99.90
39503;DHT22;26970;49.900;10.774;2022-09-25T15:22:30;13.70;99.90
39503;DHT22;26970;49.900;10.774;2022-09-25T15:24:59;13.70;99.90
39503;DHT22;26970;49.900;10.774;2022-09-25T15:27:27;14.70;99.90
39503;DHT22;26970;49.900;10.774;2022-09-25T15:29:53;13.70;99.90
39503;DHT22;26970;49.900;10.774;2022-09-25T15:32:31;13.60;99.90
39503;DHT22;26970;49.900;10.774;2022-09-25T15:37:39;14.70;99.90
39503;DHT22;26970;49.900;10.774;2022-09-25T15:40:25;14.50;99.90
39503;DHT22;26970;49.900;10.774;2022-09-25T15:42:53;14.60;99.90
39503;DHT22;26970;49.900;10.774;2022-09-25T15:47:58;13.40;99.90
39503;DHT22;26970;49.900;10.774;2022-09-25T15:50:27;14.60;99.90
39503;DHT22;26970;49.900;10.774;2022-09-25T15:52:59;13.60;99.90
39503;DHT22;26970;49.900;10.774;2022-09-25T15:55:47;14.00;99.90
39503;DHT22;26970;49.900;10.774;2022-09-25T15:58:41;13.70;99.90
39503;DHT22;26970;49.900;10.774;2022-09-25T16:11:04;13.50;99.90
39503;DHT22;26970;49.900;10.774;2022-09-25T16:13:30;13.50;99.90
39503;DHT22;26970;49.900;10.774;2022-09-25T16:15:57;13.50;99.90
39503;DHT22;26970;49.900;10.774;2022-09-25T16:18:38;13.80;99.90
39503;DHT22;26970;49.900;10.774;2022-09-25T16:21:18;13.30;99.90
39503;DHT22;26970;49.900;10.774;2022-09-25T16:23:54;13.30;99.90
39503;DHT22;26970;49.900;10.774;2022-09-25T16:26:24;13.10;99.90
39503;DHT22;26970;49.900;10.774;2022-09-25T16:29:04;12.60;99.90
39503;DHT22;26970;49.900;10.774;2022-09-25T16:31:32;13.80;99.90
39503;DHT22;26970;49.900;10.774;2022-09-25T16:34:18;13.30;99.90
39503;DHT22;26970;49.900;10.774;2022-09-25T16:36:56;13.00;99.90
39503;DHT22;26970;49.900;10.774;2022-09-25T16:39:42;13.60;99.90
39503;DHT22;26970;49.900;10.774;2022-09-25T16:42:31;13.70;99.90
39503;DHT22;26970;49.900;10.774;2022-09-25T16:45:19;14.00;99.90
39503;DHT22;26970;49.900;10.774;2022-09-25T16:47:49;13.10;99.90
39503;DHT22;26970;49.900;10.774;2022-09-25T16:50:28;13.50;99.90
39503;DHT22;26970;49.900;10.774;2022-09-25T16:53:01;14.20;99.90
39503;DHT22;26970;49.900;10.774;2022-09-25T16:55:27;13.00;99.90
39503;DHT22;26970;49.900;10.774;2022-09-25T16:58:08;14.20;99.90
39503;DHT22;26970;49.900;10.774;2022-09-25T17:00:41;13.20;99.90
39503;DHT22;26970;49.900;10.774;2022-09-25T17:03:19;13.60;99.90
39503;DHT22;26970;49.900;10.774;2022-09-25T17:05:45;12.30;99.90
39503;DHT22;26970;49.900;10.774;2022-09-25T17:08:39;13.30;99.90
39503;DHT22;26970;49.900;10.774;2022-09-25T17:11:11;14.00;99.90
39503;DHT22;26970;49.900;10.774;2022-09-25T17:14:15;13.80;99.90
39503;DHT22;26970;49.900;10.774;2022-09-25T17:16:41;12.80;99.90
39503;DHT22;26970;49.900;10.774;2022-09-25T17:19:12;12.90;99.90
39503;DHT22;26970;49.900;10.774;2022-09-25T17:21:40;13.00;99.90
39503;DHT22;26970;49.900;10.774;2022-09-25T17:24:11;13.00;99.90
39503;DHT22;26970;49.900;10.774;2022-09-25T17:26:37;12.90;99.90
39503;DHT22;26970;49.900;10.774;2022-09-25T17:29:04;12.90;99.90
39503;DHT22;26970;49.900;10.774;2022-09-25T17:31:29;12.90;99.90
39503;DHT22;26970;49.900;10.774;2022-09-25T17:33:56;12.90;99.90
39503;DHT22;26970;49.900;10.774;2022-09-25T17:36:21;12.90;99.90
39503;DHT22;26970;49.900;10.774;2022-09-25T17:38:47;12.90;99.90
39503;DHT22;26970;49.900;10.774;2022-09-25T17:41:31;12.90;99.90